sensor_id;sensor_type;location;lat;lon;timestamp;pressure;altitude;pressure_sealevel;temperature;humidity
48553;BME280;34335;51.566;6.994;2023-03-31T00:01:10;99913.75;;;9.93;100.00
48553;BME280;34335;51.566;6.994;2023-03-31T00:03:35;99910.38;;;9.85;100.00
48553;BME280;34335;51.566;6.994;2023-03-31T00:06:03;99910.38;;;9.85;100.00
48553;BME280;34335;51.566;6.994;2023-03-31T00:08:32;99908.50;;;9.96;100.00
48553;BME280;34335;51.566;6.994;2023-03-31T00:11:03;99908.50;;;9.98;100.00
48553;BME280;34335;51.566;6.994;2023-03-31T00:13:29;99896.50;;;9.86;100.00
48553;BME280;34335;51.566;6.994;2023-03-31T00:16:00;99895.72;;;9.79;100.00
48553;BME280;34335;51.566;6.994;2023-03-31T00:18:25;99883.56;;;9.83;100.00
48553;BME280;34335;51.566;6.994;2023-03-31T00:20:52;99882.63;;;9.87;100.00
48553;BME280;34335;51.566;6.994;2023-03-31T00:23:18;99876.59;;;9.87;100.00
48553;BME280;34335;51.566;6.994;2023-03-31T00:25:53;99874.84;;;9.87;100.00
48553;BME280;34335;51.566;6.994;2023-03-31T00:28:18;99863.66;;;9.82;100.00
48553;BME280;34335;51.566;6.994;2023-03-31T00:30:44;99862.63;;;9.97;100.00
48553;BME280;34335;51.566;6.994;2023-03-31T00:33:11;99848.91;;;9.86;100.00
48553;BME280;34335;51.566;6.994;2023-03-31T00:35:36;99852.34;;;9.86;100.00
48553;BME280;34335;51.566;6.994;2023-03-31T00:38:03;99860.19;;;9.83;100.00
48553;BME280;34335;51.566;6.994;2023-03-31T00:40:30;99848.94;;;9.81;100.00
48553;BME280;34335;51.566;6.994;2023-03-31T00:42:55;99840.34;;;9.77;100.00
48553;BME280;34335;51.566;6.994;2023-03-31T00:45:24;99840.38;;;9.76;100.00
48553;BME280;34335;51.566;6.994;2023-03-31T00:48:02;99833.22;;;9.92;100.00
48553;BME280;34335;51.566;6.994;2023-03-31T00:50:34;99816.91;;;9.82;100.00
48553;BME280;34335;51.566;6.994;2023-03-31T00:53:05;99817.78;;;9.81;100.00
48553;BME280;34335;51.566;6.994;2023-03-31T00:55:39;99815.16;;;9.82;100.00
48553;BME280;34335;51.566;6.994;2023-03-31T00:58:06;99808.28;;;9.80;100.00
48553;BME280;34335;51.566;6.994;2023-03-31T01:00:32;99807.38;;;9.84;100.00
48553;BME280;34335;51.566;6.994;2023-03-31T01:03:01;99797.81;;;9.86;100.00
48553;BME280;34335;51.566;6.994;2023-03-31T01:05:39;99794.31;;;9.87;100.00
48553;BME280;34335;51.566;6.994;2023-03-31T01:08:07;99789.13;;;9.87;100.00
48553;BME280;34335;51.566;6.994;2023-03-31T01:10:36;99790.91;;;9.85;100.00
48553;BME280;34335;51.566;6.994;2023-03-31T01:13:07;99782.22;;;9.86;100.00
48553;BME280;34335;51.566;6.994;2023-03-31T01:15:33;99790.06;;;9.83;100.00
48553;BME280;34335;51.566;6.994;2023-03-31T01:17:59;99789.38;;;9.70;100.00
48553;BME280;34335;51.566;6.994;2023-03-31T01:26:14;99775.75;;;9.49;100.00
48553;BME280;34335;51.566;6.994;2023-03-31T01:29:00;99784.56;;;9.34;100.00
48553;BME280;34335;51.566;6.994;2023-03-31T01:34:25;99774.22;;;9.31;100.00
48553;BME280;34335;51.566;6.994;2023-03-31T01:37:11;99769.09;;;9.25;100.00
48553;BME280;34335;51.566;6.994;2023-03-31T01:42:52;99759.56;;;9.26;100.00
48553;BME280;34335;51.566;6.994;2023-03-31T01:48:11;99746.72;;;9.15;100.00
48553;BME280;34335;51.566;6.994;2023-03-31T01:50:55;99722.50;;;9.16;100.00
48553;BME280;34335;51.566;6.994;2023-03-31T01:53:49;99718.16;;;9.16;100.00
48553;BME280;34335;51.566;6.994;2023-03-31T01:56:24;99714.69;;;9.20;100.00
48553;BME280;34335;51.566;6.994;2023-03-31T01:58:59;99713.00;;;9.15;100.00
48553;BME280;34335;51.566;6.994;2023-03-31T02:01:34;99712.06;;;9.19;100.00
48553;BME280;34335;51.566;6.994;2023-03-31T02:04:22;99703.47;;;9.17;100.00
48553;BME280;34335;51.566;6.994;2023-03-31T02:07:13;99696.50;;;9.20;100.00
48553;BME280;34335;51.566;6.994;2023-03-31T02:09:44;99690.44;;;9.22;100.00
48553;BME280;34335;51.566;6.994;2023-03-31T02:12:12;99667.97;;;9.20;100.00
48553;BME280;34335;51.566;6.994;2023-03-31T02:14:42;99685.19;;;9.28;100.00
48553;BME280;34335;51.566;6.994;2023-03-31T02:17:14;99670.47;;;9.28;100.00
48553;BME280;34335;51.566;6.994;2023-03-31T02:19:43;99658.31;;;9.30;100.00
48553;BME280;34335;51.566;6.994;2023-03-31T02:22:10;99661.75;;;9.35;100.00
48553;BME280;34335;51.566;6.994;2023-03-31T02:24:39;99648.84;;;9.28;100.00
48553;BME280;34335;51.566;6.994;2023-03-31T02:29:35;99635.72;;;9.39;100.00
48553;BME280;34335;51.566;6.994;2023-03-31T02:32:20;99632.22;;;9.43;100.00
48553;BME280;34335;51.566;6.994;2023-03-31T02:34:47;99627.81;;;9.49;100.00
48553;BME280;34335;51.566;6.994;2023-03-31T02:37:12;99608.84;;;9.44;100.00
48553;BME280;34335;51.566;6.994;2023-03-31T02:39:39;99613.09;;;9.51;100.00
48553;BME280;34335;51.566;6.994;2023-03-31T02:42:06;99602.69;;;9.53;100.00
48553;BME280;34335;51.566;6.994;2023-03-31T02:44:40;99600.97;;;9.52;100.00
48553;BME280;34335;51.566;6.994;2023-03-31T02:47:08;99593.22;;;9.50;100.00
48553;BME280;34335;51.566;6.994;2023-03-31T02:49:36;99583.69;;;9.48;100.00
48553;BME280;34335;51.566;6.994;2023-03-31T02:52:13;99577.63;;;9.50;100.00
48553;BME280;34335;51.566;6.994;2023-03-31T02:57:19;99559.41;;;9.54;100.00
48553;BME280;34335;51.566;6.994;2023-03-31T03:00:12;99553.38;;;9.53;100.00
48553;BME280;34335;51.566;6.994;2023-03-31T03:05:31;99536.06;;;9.52;100.00
48553;BME280;34335;51.566;6.994;2023-03-31T03:08:45;99523.97;;;9.51;100.00
48553;BME280;34335;51.566;6.994;2023-03-31T03:14:03;99518.72;;;9.56;100.00
48553;BME280;34335;51.566;6.994;2023-03-31T03:16:36;99515.28;;;9.54;100.00
48553;BME280;34335;51.566;6.994;2023-03-31T03:19:05;99504.06;;;9.53;100.00
48553;BME280;34335;51.566;6.994;2023-03-31T03:21:31;99512.59;;;9.58;100.00
48553;BME280;34335;51.566;6.994;2023-03-31T03:23:57;99494.50;;;9.54;100.00
48553;BME280;34335;51.566;6.994;2023-03-31T03:26:24;99492.06;;;9.46;100.00
48553;BME280;34335;51.566;6.994;2023-03-31T03:28:53;99491.25;;;9.42;100.00
48553;BME280;34335;51.566;6.994;2023-03-31T03:31:19;99470.44;;;9.45;100.00
48553;BME280;34335;51.566;6.994;2023-03-31T03:33:45;99475.53;;;9.51;100.00
48553;BME280;34335;51.566;6.994;2023-03-31T03:36:11;99471.19;;;9.52;100.00
48553;BME280;34335;51.566;6.994;2023-03-31T03:38:36;99465.00;;;9.61;100.00
48553;BME280;34335;51.566;6.994;2023-03-31T03:41:02;99472.03;;;9.54;100.00
48553;BME280;34335;51.566;6.994;2023-03-31T03:43:27;99442.59;;;9.54;100.00
48553;BME280;34335;51.566;6.994;2023-03-31T03:45:52;99442.75;;;9.46;100.00
48553;BME280;34335;51.566;6.994;2023-03-31T03:48:18;99439.13;;;9.56;100.00
48553;BME280;34335;51.566;6.994;2023-03-31T03:50:47;99435.69;;;9.52;100.00
48553;BME280;34335;51.566;6.994;2023-03-31T03:53:13;99426.06;;;9.59;100.00
48553;BME280;34335;51.566;6.994;2023-03-31T03:55:39;99413.00;;;9.64;100.00
48553;BME280;34335;51.566;6.994;2023-03-31T03:58:04;99411.38;;;9.60;100.00
48553;BME280;34335;51.566;6.994;2023-03-31T04:00:30;99413.00;;;9.64;100.00
48553;BME280;34335;51.566;6.994;2023-03-31T04:02:55;99413.09;;;9.59;100.00
48553;BME280;34335;51.566;6.994;2023-03-31T04:05:20;99404.53;;;9.54;100.00
48553;BME280;34335;51.566;6.994;2023-03-31T04:07:45;99403.59;;;9.60;100.00
48553;BME280;34335;51.566;6.994;2023-03-31T04:10:11;99413.97;;;9.60;100.00
48553;BME280;34335;51.566;6.994;2023-03-31T04:12:36;99402.88;;;9.50;100.00
48553;BME280;34335;51.566;6.994;2023-03-31T04:15:03;99389.81;;;9.56;100.00
48553;BME280;34335;51.566;6.994;2023-03-31T04:17:28;99376.03;;;9.51;100.00
48553;BME280;34335;51.566;6.994;2023-03-31T04:19:58;99338.06;;;9.47;100.00
48553;BME280;34335;51.566;6.994;2023-03-31T04:22:28;99341.38;;;9.54;100.00
48553;BME280;34335;51.566;6.994;2023-03-31T04:25:01;99341.38;;;9.55;100.00
48553;BME280;34335;51.566;6.994;2023-03-31T04:27:26;99350.03;;;9.54;100.00
48553;BME280;34335;51.566;6.994;2023-03-31T04:29:52;99363.03;;;9.54;100.00
48553;BME280;34335;51.566;6.994;2023-03-31T04:32:21;99363.91;;;9.53;100.00
48553;BME280;34335;51.566;6.994;2023-03-31T04:34:47;99357.84;;;9.52;100.00
48553;BME280;34335;51.566;6.994;2023-03-31T04:37:15;99348.31;;;9.53;100.00
48553;BME280;34335;51.566;6.994;2023-03-31T04:39:41;99324.97;;;9.53;100.00
48553;BME280;34335;51.566;6.994;2023-03-31T04:42:06;99321.50;;;9.52;100.00
48553;BME280;34335;51.566;6.994;2023-03-31T04:44:31;99313.72;;;9.54;100.00
48553;BME280;34335;51.566;6.994;2023-03-31T04:46:57;99297.16;;;9.60;100.00
48553;BME280;34335;51.566;6.994;2023-03-31T04:49:23;99292.06;;;9.54;100.00
48553;BME280;34335;51.566;6.994;2023-03-31T04:51:49;99298.22;;;9.48;100.00
48553;BME280;34335;51.566;6.994;2023-03-31T04:54:14;99301.75;;;9.47;100.00
48553;BME280;34335;51.566;6.994;2023-03-31T04:56:40;99290.34;;;9.52;100.00
48553;BME280;34335;51.566;6.994;2023-03-31T04:59:05;99277.28;;;9.57;100.00
48553;BME280;34335;51.566;6.994;2023-03-31T05:01:32;99270.47;;;9.53;100.00
48553;BME280;34335;51.566;6.994;2023-03-31T05:03:58;99266.19;;;9.50;100.00
48553;BME280;34335;51.566;6.994;2023-03-31T05:06:24;99260.13;;;9.50;100.00
48553;BME280;34335;51.566;6.994;2023-03-31T05:08:50;99256.72;;;9.48;100.00
48553;BME280;34335;51.566;6.994;2023-03-31T05:11:15;99255.03;;;9.47;100.00
48553;BME280;34335;51.566;6.994;2023-03-31T05:13:40;99235.94;;;9.48;100.00
48553;BME280;34335;51.566;6.994;2023-03-31T05:16:10;99224.69;;;9.50;100.00
48553;BME280;34335;51.566;6.994;2023-03-31T05:18:38;99216.91;;;9.50;100.00
48553;BME280;34335;51.566;6.994;2023-03-31T05:21:18;99215.28;;;9.43;100.00
48553;BME280;34335;51.566;6.994;2023-03-31T05:23:44;99204.94;;;9.42;100.00
48553;BME280;34335;51.566;6.994;2023-03-31T05:26:10;99202.41;;;9.40;100.00
48553;BME280;34335;51.566;6.994;2023-03-31T05:28:36;99203.31;;;9.36;100.00
48553;BME280;34335;51.566;6.994;2023-03-31T05:31:02;99204.25;;;9.33;100.00
48553;BME280;34335;51.566;6.994;2023-03-31T05:33:28;99197.31;;;9.34;100.00
48553;BME280;34335;51.566;6.994;2023-03-31T05:35:54;99197.44;;;9.28;100.00
48553;BME280;34335;51.566;6.994;2023-03-31T05:38:20;99201.84;;;9.24;100.00
48553;BME280;34335;51.566;6.994;2023-03-31T05:40:46;99195.88;;;9.19;100.00
48553;BME280;34335;51.566;6.994;2023-03-31T05:43:11;99188.75;;;9.30;100.00
48553;BME280;34335;51.566;6.994;2023-03-31T05:45:37;99173.22;;;9.29;100.00
48553;BME280;34335;51.566;6.994;2023-03-31T05:48:02;99172.28;;;9.31;100.00
48553;BME280;34335;51.566;6.994;2023-03-31T05:50:27;99164.44;;;9.34;100.00
48553;BME280;34335;51.566;6.994;2023-03-31T05:52:52;99153.19;;;9.35;100.00
48553;BME280;34335;51.566;6.994;2023-03-31T05:55:18;99153.09;;;9.39;100.00
48553;BME280;34335;51.566;6.994;2023-03-31T05:57:43;99147.97;;;9.37;100.00
48553;BME280;34335;51.566;6.994;2023-03-31T06:00:09;99154.97;;;9.33;100.00
48553;BME280;34335;51.566;6.994;2023-03-31T06:02:35;99141.09;;;9.34;100.00
48553;BME280;34335;51.566;6.994;2023-03-31T06:05:00;99142.00;;;9.33;100.00
48553;BME280;34335;51.566;6.994;2023-03-31T06:07:26;99142.81;;;9.35;100.00
48553;BME280;34335;51.566;6.994;2023-03-31T06:09:51;99139.19;;;9.43;100.00
48553;BME280;34335;51.566;6.994;2023-03-31T06:12:16;99133.16;;;9.42;100.00
48553;BME280;34335;51.566;6.994;2023-03-31T06:14:42;99132.16;;;9.48;100.00
48553;BME280;34335;51.566;6.994;2023-03-31T06:17:07;99133.06;;;9.47;100.00
48553;BME280;34335;51.566;6.994;2023-03-31T06:19:32;99131.16;;;9.54;100.00
48553;BME280;34335;51.566;6.994;2023-03-31T06:21:58;99131.06;;;9.60;100.00
48553;BME280;34335;51.566;6.994;2023-03-31T06:24:23;99113.66;;;9.63;100.00
48553;BME280;34335;51.566;6.994;2023-03-31T06:26:48;99107.66;;;9.61;100.00
48553;BME280;34335;51.566;6.994;2023-03-31T06:29:13;99108.44;;;9.65;100.00
48553;BME280;34335;51.566;6.994;2023-03-31T06:31:39;99110.91;;;9.70;100.00
48553;BME280;34335;51.566;6.994;2023-03-31T06:34:04;99117.09;;;9.64;100.00
48553;BME280;34335;51.566;6.994;2023-03-31T06:36:30;99114.56;;;9.62;100.00
48553;BME280;34335;51.566;6.994;2023-03-31T06:38:56;99104.22;;;9.59;100.00
48553;BME280;34335;51.566;6.994;2023-03-31T06:41:21;99109.50;;;9.56;100.00
48553;BME280;34335;51.566;6.994;2023-03-31T06:43:47;99109.41;;;9.59;100.00
48553;BME280;34335;51.566;6.994;2023-03-31T06:46:12;99113.81;;;9.56;100.00
48553;BME280;34335;51.566;6.994;2023-03-31T06:48:38;99106.09;;;9.54;100.00
48553;BME280;34335;51.566;6.994;2023-03-31T06:51:05;99107.03;;;9.50;100.00
48553;BME280;34335;51.566;6.994;2023-03-31T06:53:31;99102.72;;;9.49;100.00
48553;BME280;34335;51.566;6.994;2023-03-31T06:55:56;99101.09;;;9.45;100.00
48553;BME280;34335;51.566;6.994;2023-03-31T06:58:22;99104.53;;;9.45;100.00
48553;BME280;34335;51.566;6.994;2023-03-31T07:00:48;99095.91;;;9.45;100.00
48553;BME280;34335;51.566;6.994;2023-03-31T07:03:13;99101.16;;;9.42;100.00
48553;BME280;34335;51.566;6.994;2023-03-31T07:05:47;99102.03;;;9.41;100.00
48553;BME280;34335;51.566;6.994;2023-03-31T07:08:12;99106.34;;;9.42;100.00
48553;BME280;34335;51.566;6.994;2023-03-31T07:10:38;99106.25;;;9.46;100.00
48553;BME280;34335;51.566;6.994;2023-03-31T07:13:03;99095.91;;;9.45;100.00
48553;BME280;34335;51.566;6.994;2023-03-31T07:15:28;99095.94;;;9.43;100.00
48553;BME280;34335;51.566;6.994;2023-03-31T07:17:57;99098.53;;;9.43;100.00
48553;BME280;34335;51.566;6.994;2023-03-31T07:20:27;99086.53;;;9.39;100.00
48553;BME280;34335;51.566;6.994;2023-03-31T07:22:52;99108.19;;;9.37;100.00
48553;BME280;34335;51.566;6.994;2023-03-31T07:25:18;99096.19;;;9.32;100.00
48553;BME280;34335;51.566;6.994;2023-03-31T07:27:43;99090.25;;;9.27;100.00
48553;BME280;34335;51.566;6.994;2023-03-31T07:30:19;99090.97;;;9.32;100.00
48553;BME280;34335;51.566;6.994;2023-03-31T07:32:46;99084.97;;;9.32;100.00
48553;BME280;34335;51.566;6.994;2023-03-31T07:35:11;99080.56;;;9.35;100.00
48553;BME280;34335;51.566;6.994;2023-03-31T07:37:38;99088.38;;;9.32;100.00
48553;BME280;34335;51.566;6.994;2023-03-31T07:40:04;99086.69;;;9.31;100.00
48553;BME280;34335;51.566;6.994;2023-03-31T07:42:31;99087.50;;;9.33;100.00
48553;BME280;34335;51.566;6.994;2023-03-31T07:44:57;99075.38;;;9.35;100.00
48553;BME280;34335;51.566;6.994;2023-03-31T07:47:22;99076.19;;;9.36;100.00
48553;BME280;34335;51.566;6.994;2023-03-31T07:49:48;99084.03;;;9.34;100.00
48553;BME280;34335;51.566;6.994;2023-03-31T07:52:14;99079.78;;;9.30;100.00
48553;BME280;34335;51.566;6.994;2023-03-31T07:54:39;99080.59;;;9.32;100.00
48553;BME280;34335;51.566;6.994;2023-03-31T07:57:05;99078.84;;;9.34;100.00
48553;BME280;34335;51.566;6.994;2023-03-31T07:59:32;99078.94;;;9.28;100.00
48553;BME280;34335;51.566;6.994;2023-03-31T08:01:57;99075.47;;;9.29;100.00
48553;BME280;34335;51.566;6.994;2023-03-31T08:04:23;99061.63;;;9.30;100.00
48553;BME280;34335;51.566;6.994;2023-03-31T08:06:48;99065.97;;;9.28;100.00
48553;BME280;34335;51.566;6.994;2023-03-31T08:09:15;99059.84;;;9.32;100.00
48553;BME280;34335;51.566;6.994;2023-03-31T08:11:41;99046.72;;;9.40;100.00
48553;BME280;34335;51.566;6.994;2023-03-31T08:14:07;99057.16;;;9.37;100.00
48553;BME280;34335;51.566;6.994;2023-03-31T08:16:32;99050.31;;;9.34;100.00
48553;BME280;34335;51.566;6.994;2023-03-31T08:18:57;99051.09;;;9.38;100.00
48553;BME280;34335;51.566;6.994;2023-03-31T08:21:23;99052.91;;;9.34;100.00
48553;BME280;34335;51.566;6.994;2023-03-31T08:23:48;99049.41;;;9.35;100.00
48553;BME280;34335;51.566;6.994;2023-03-31T08:26:17;99049.31;;;9.39;100.00
48553;BME280;34335;51.566;6.994;2023-03-31T08:28:43;99037.31;;;9.34;100.00
48553;BME280;34335;51.566;6.994;2023-03-31T08:31:08;99042.38;;;9.41;100.00
48553;BME280;34335;51.566;6.994;2023-03-31T08:33:35;99035.41;;;9.43;100.00
48553;BME280;34335;51.566;6.994;2023-03-31T08:36:06;99037.16;;;9.42;100.00
48553;BME280;34335;51.566;6.994;2023-03-31T08:38:33;99038.69;;;9.51;100.00
48553;BME280;34335;51.566;6.994;2023-03-31T08:41:00;99034.31;;;9.53;100.00
48553;BME280;34335;51.566;6.994;2023-03-31T08:43:30;99032.53;;;9.55;100.00
48553;BME280;34335;51.566;6.994;2023-03-31T08:45:57;99032.44;;;9.60;100.00
48553;BME280;34335;51.566;6.994;2023-03-31T08:48:28;99038.50;;;9.59;100.00
48553;BME280;34335;51.566;6.994;2023-03-31T08:51:30;99030.44;;;9.70;100.00
48553;BME280;34335;51.566;6.994;2023-03-31T08:54:02;99032.22;;;9.69;100.00
48553;BME280;34335;51.566;6.994;2023-03-31T08:56:33;99030.59;;;9.63;100.00
48553;BME280;34335;51.566;6.994;2023-03-31T08:59:03;99031.44;;;9.65;100.00
48553;BME280;34335;51.566;6.994;2023-03-31T09:01:37;99028.72;;;9.70;100.00
48553;BME280;34335;51.566;6.994;2023-03-31T09:04:23;99033.91;;;9.70;100.00
48553;BME280;34335;51.566;6.994;2023-03-31T09:06:59;99031.34;;;9.69;100.00
48553;BME280;34335;51.566;6.994;2023-03-31T09:15:03;99027.63;;;9.79;100.00
48553;BME280;34335;51.566;6.994;2023-03-31T09:17:39;99031.13;;;9.78;100.00
48553;BME280;34335;51.566;6.994;2023-03-31T09:20:18;99015.47;;;9.81;100.00
48553;BME280;34335;51.566;6.994;2023-03-31T09:22:48;99015.47;;;9.81;100.00
48553;BME280;34335;51.566;6.994;2023-03-31T09:25:18;99013.75;;;9.80;100.00
48553;BME280;34335;51.566;6.994;2023-03-31T09:27:44;99005.00;;;9.84;100.00
48553;BME280;34335;51.566;6.994;2023-03-31T09:30:33;99007.50;;;9.87;100.00
48553;BME280;34335;51.566;6.994;2023-03-31T09:33:19;98993.47;;;9.96;100.00
48553;BME280;34335;51.566;6.994;2023-03-31T09:35:47;98987.31;;;9.98;100.00
48553;BME280;34335;51.566;6.994;2023-03-31T09:38:14;98983.06;;;9.96;100.00
48553;BME280;34335;51.566;6.994;2023-03-31T09:40:40;98969.97;;;10.01;100.00
48553;BME280;34335;51.566;6.994;2023-03-31T09:43:23;98974.22;;;10.03;100.00
48553;BME280;34335;51.566;6.994;2023-03-31T09:45:51;98975.81;;;10.09;100.00
48553;BME280;34335;51.566;6.994;2023-03-31T09:48:24;98972.44;;;10.05;100.00
48553;BME280;34335;51.566;6.994;2023-03-31T09:51:00;98961.09;;;10.09;100.00
48553;BME280;34335;51.566;6.994;2023-03-31T09:53:31;98956.69;;;10.11;100.00
48553;BME280;34335;51.566;6.994;2023-03-31T09:56:03;98955.66;;;10.17;100.00
48553;BME280;34335;51.566;6.994;2023-03-31T09:58:30;98949.63;;;10.17;100.00
48553;BME280;34335;51.566;6.994;2023-03-31T10:03:23;98952.56;;;10.36;100.00
48553;BME280;34335;51.566;6.994;2023-03-31T10:05:51;98948.03;;;10.44;100.00
48553;BME280;34335;51.566;6.994;2023-03-31T10:11:05;98934.88;;;10.50;100.00
48553;BME280;34335;51.566;6.994;2023-03-31T10:16:05;98928.47;;;10.90;100.00
48553;BME280;34335;51.566;6.994;2023-03-31T10:18:39;98914.69;;;10.87;100.00
48553;BME280;34335;51.566;6.994;2023-03-31T10:21:09;98915.22;;;10.98;100.00
48553;BME280;34335;51.566;6.994;2023-03-31T10:23:45;98922.44;;;11.17;100.00
48553;BME280;34335;51.566;6.994;2023-03-31T10:26:15;98937.91;;;11.21;100.00
48553;BME280;34335;51.566;6.994;2023-03-31T10:28:41;98924.59;;;11.31;100.00
48553;BME280;34335;51.566;6.994;2023-03-31T10:31:07;98928.97;;;11.30;100.00
48553;BME280;34335;51.566;6.994;2023-03-31T10:33:32;98915.94;;;11.03;100.00
48553;BME280;34335;51.566;6.994;2023-03-31T10:36:01;98928.63;;;10.86;100.00
48553;BME280;34335;51.566;6.994;2023-03-31T10:38:34;98941.75;;;10.81;100.00
48553;BME280;34335;51.566;6.994;2023-03-31T10:41:01;98937.13;;;10.91;100.00
48553;BME280;34335;51.566;6.994;2023-03-31T10:43:34;98942.25;;;10.94;100.00
48553;BME280;34335;51.566;6.994;2023-03-31T10:46:01;98927.94;;;11.07;100.00
48553;BME280;34335;51.566;6.994;2023-03-31T10:48:35;98924.28;;;11.13;100.00
48553;BME280;34335;51.566;6.994;2023-03-31T10:51:17;98912.69;;;11.23;100.00
48553;BME280;34335;51.566;6.994;2023-03-31T10:53:51;98909.44;;;11.44;100.00
48553;BME280;34335;51.566;6.994;2023-03-31T11:02:05;98895.38;;;11.75;100.00
48553;BME280;34335;51.566;6.994;2023-03-31T11:10:02;98898.28;;;11.91;100.00
48553;BME280;34335;51.566;6.994;2023-03-31T11:12:34;98901.63;;;11.94;100.00
48553;BME280;34335;51.566;6.994;2023-03-31T11:15:13;98908.50;;;11.97;100.00
48553;BME280;34335;51.566;6.994;2023-03-31T11:23:16;98920.63;;;11.73;100.00
48553;BME280;34335;51.566;6.994;2023-03-31T11:25:52;98930.19;;;11.72;100.00
48553;BME280;34335;51.566;6.994;2023-03-31T11:28:26;98929.44;;;11.68;100.00
48553;BME280;34335;51.566;6.994;2023-03-31T11:31:20;98913.13;;;11.63;100.00
48553;BME280;34335;51.566;6.994;2023-03-31T11:34:14;98909.19;;;11.77;100.00
48553;BME280;34335;51.566;6.994;2023-03-31T11:37:00;98906.53;;;11.78;100.00
48553;BME280;34335;51.566;6.994;2023-03-31T11:39:36;98910.66;;;11.84;100.00
48553;BME280;34335;51.566;6.994;2023-03-31T11:42:15;98903.94;;;12.04;100.00
48553;BME280;34335;51.566;6.994;2023-03-31T11:44:54;98894.78;;;12.17;100.00
48553;BME280;34335;51.566;6.994;2023-03-31T11:47:25;98898.03;;;12.24;100.00
48553;BME280;34335;51.566;6.994;2023-03-31T11:49:53;98900.72;;;12.21;100.00
48553;BME280;34335;51.566;6.994;2023-03-31T11:52:27;98908.22;;;12.30;100.00
48553;BME280;34335;51.566;6.994;2023-03-31T12:00:10;98890.06;;;12.27;100.00
48553;BME280;34335;51.566;6.994;2023-03-31T12:03:05;98894.78;;;12.41;100.00
48553;BME280;34335;51.566;6.994;2023-03-31T12:05:39;98890.31;;;12.44;100.00
48553;BME280;34335;51.566;6.994;2023-03-31T12:08:19;98894.19;;;12.34;100.00
48553;BME280;34335;51.566;6.994;2023-03-31T12:10:50;98888.50;;;12.23;100.00
48553;BME280;34335;51.566;6.994;2023-03-31T12:13:35;98890.75;;;12.08;100.00
48553;BME280;34335;51.566;6.994;2023-03-31T12:16:21;98876.66;;;12.14;100.00
48553;BME280;34335;51.566;6.994;2023-03-31T12:21:43;98872.88;;;12.23;100.00
48553;BME280;34335;51.566;6.994;2023-03-31T12:24:12;98874.56;;;12.24;100.00
48553;BME280;34335;51.566;6.994;2023-03-31T12:29:38;98866.84;;;12.21;100.00
48553;BME280;34335;51.566;6.994;2023-03-31T12:32:16;98866.63;;;12.27;100.00
48553;BME280;34335;51.566;6.994;2023-03-31T12:35:00;98864.00;;;12.27;100.00
48553;BME280;34335;51.566;6.994;2023-03-31T12:37:54;98871.97;;;12.24;100.00
48553;BME280;34335;51.566;6.994;2023-03-31T12:46:28;98862.78;;;12.13;100.00
48553;BME280;34335;51.566;6.994;2023-03-31T12:49:01;98868.56;;;12.22;100.00
48553;BME280;34335;51.566;6.994;2023-03-31T12:59:39;98840.03;;;12.41;100.00
48553;BME280;34335;51.566;6.994;2023-03-31T13:04:33;98848.97;;;12.57;100.00
48553;BME280;34335;51.566;6.994;2023-03-31T13:06:58;98843.69;;;12.59;100.00
48553;BME280;34335;51.566;6.994;2023-03-31T13:12:14;98828.47;;;12.70;100.00
48553;BME280;34335;51.566;6.994;2023-03-31T13:14:42;98833.63;;;12.72;100.00
48553;BME280;34335;51.566;6.994;2023-03-31T13:17:17;98816.09;;;12.75;100.00
48553;BME280;34335;51.566;6.994;2023-03-31T13:19:44;98821.25;;;12.77;100.00
48553;BME280;34335;51.566;6.994;2023-03-31T13:22:29;98815.06;;;12.80;100.00
48553;BME280;34335;51.566;6.994;2023-03-31T13:25:34;98808.16;;;12.78;100.00
48553;BME280;34335;51.566;6.994;2023-03-31T13:29:08;98814.03;;;12.84;100.00
48553;BME280;34335;51.566;6.994;2023-03-31T13:30:58;98808.03;;;12.82;100.00
48553;BME280;34335;51.566;6.994;2023-03-31T13:34:03;98805.63;;;12.77;100.00
48553;BME280;34335;51.566;6.994;2023-03-31T13:37:02;98813.28;;;12.80;100.00
48553;BME280;34335;51.566;6.994;2023-03-31T13:39:42;98808.88;;;12.82;100.00
48553;BME280;34335;51.566;6.994;2023-03-31T13:48:43;98803.50;;;13.07;100.00
48553;BME280;34335;51.566;6.994;2023-03-31T14:04:58;98800.38;;;13.20;100.00
48553;BME280;34335;51.566;6.994;2023-03-31T14:07:31;98796.00;;;13.20;100.00
48553;BME280;34335;51.566;6.994;2023-03-31T14:09:58;98797.38;;;13.29;100.00
48553;BME280;34335;51.566;6.994;2023-03-31T14:14:52;98778.66;;;13.40;100.00
48553;BME280;34335;51.566;6.994;2023-03-31T14:17:19;98778.22;;;13.51;100.00
48553;BME280;34335;51.566;6.994;2023-03-31T14:20:00;98775.03;;;13.63;100.00
48553;BME280;34335;51.566;6.994;2023-03-31T14:25:34;98770.00;;;13.38;100.00
48553;BME280;34335;51.566;6.994;2023-03-31T14:37:00;98748.50;;;13.33;100.00
48553;BME280;34335;51.566;6.994;2023-03-31T14:39:32;98742.56;;;13.29;100.00
48553;BME280;34335;51.566;6.994;2023-03-31T14:42:03;98742.75;;;13.24;100.00
48553;BME280;34335;51.566;6.994;2023-03-31T14:44:29;98742.75;;;13.24;100.00
48553;BME280;34335;51.566;6.994;2023-03-31T14:46:56;98753.06;;;13.07;100.00
48553;BME280;34335;51.566;6.994;2023-03-31T14:49:27;98748.63;;;13.09;100.00
48553;BME280;34335;51.566;6.994;2023-03-31T14:51:57;98760.09;;;12.84;100.00
48553;BME280;34335;51.566;6.994;2023-03-31T14:54:24;98785.84;;;12.71;100.00
48553;BME280;34335;51.566;6.994;2023-03-31T14:56:53;98805.66;;;11.83;100.00
48553;BME280;34335;51.566;6.994;2023-03-31T14:59:29;98823.94;;;11.06;100.00
48553;BME280;34335;51.566;6.994;2023-03-31T15:01:57;98823.78;;;10.84;100.00
48553;BME280;34335;51.566;6.994;2023-03-31T15:04:25;98835.72;;;10.63;100.00
48553;BME280;34335;51.566;6.994;2023-03-31T15:06:52;98807.03;;;10.66;100.00
48553;BME280;34335;51.566;6.994;2023-03-31T15:09:28;98800.41;;;10.82;100.00
48553;BME280;34335;51.566;6.994;2023-03-31T15:11:59;98804.19;;;10.73;100.00
48553;BME280;34335;51.566;6.994;2023-03-31T15:14:38;98801.88;;;10.64;100.00